»·PEaware :: N20957 KBFL-KMHV

N20957 :: KBFL-KMHV

FLIGHT INFORMATION

Flight Status: Arrived
Operator: Privately registered:
United States
More flights under this callsign
Pilot: Charles P. (32095)
Aircraft: CESSNA 172 SKYHAWK
(C172)
More flights by this aircraft type
Origin: KBFL Meadows
United States
Destination: KMHV Mojave
United States
More flights between these airports :: More routes between these airports
Route:
File this flight plan on PilotEdge
Remarks: N / A
Altitude:
(Current/Filed)
7,500ft
Speed:
(Current/Filed)
124kts
Departed: 13-Feb-21 12:45 PM
Arrived: 13-Feb-21 01:16 PM
Distance/Time
Traveled:
50nm/0:30
Distance/Time
To Go:
Arrived

Flight Plot

Page will automatically refresh every two minutes.


Map Options




Map Legend


Flown Route
Filed Route
Departure Airport
Arrival Airport
Navaid (VOR, NDB)
Fix

Horizontal Profiles

Position Reports

Time Latitude Longitude Heading Altitude Ground
Speed
13-Feb-21 12:06 35.428717 -119.045456 63 481ft 0kts
13-Feb-21 12:07 35.428717 -119.045456 63 481ft 0kts
13-Feb-21 12:08 35.428717 -119.045456 63 481ft 0kts
13-Feb-21 12:09 35.428717 -119.045456 63 481ft 0kts
13-Feb-21 12:10 35.428717 -119.045456 63 481ft 0kts
13-Feb-21 12:11 35.428717 -119.045456 63 481ft 0kts
13-Feb-21 12:12 35.428717 -119.045456 63 481ft 0kts
13-Feb-21 12:13 35.428717 -119.045456 63 481ft 0kts
13-Feb-21 12:14 35.428717 -119.045456 63 481ft 0kts
13-Feb-21 12:15 35.428717 -119.045456 63 481ft 0kts
13-Feb-21 12:16 35.428717 -119.045456 63 481ft 0kts
13-Feb-21 12:17 35.428717 -119.045456 63 481ft 0kts
13-Feb-21 12:18 35.428717 -119.045456 63 481ft 0kts
13-Feb-21 12:19 35.428717 -119.045456 63 481ft 0kts
13-Feb-21 12:20 35.428717 -119.045456 63 481ft 0kts
13-Feb-21 12:21 35.428717 -119.045456 63 481ft 0kts
13-Feb-21 12:22 35.428717 -119.045456 62 481ft 0kts
13-Feb-21 12:23 35.428717 -119.045456 62 481ft 0kts
13-Feb-21 12:24 35.428717 -119.045456 62 481ft 0kts
13-Feb-21 12:25 35.428717 -119.045456 62 481ft 0kts
13-Feb-21 12:26 35.428717 -119.045456 61 481ft 0kts
13-Feb-21 12:27 35.428717 -119.045456 61 481ft 0kts
13-Feb-21 12:28 35.428717 -119.045456 61 481ft 0kts
13-Feb-21 12:29 35.428717 -119.045456 60 481ft 0kts
13-Feb-21 12:30 35.428717 -119.045456 60 481ft 0kts
13-Feb-21 12:31 35.428716 -119.045456 60 481ft 0kts
13-Feb-21 12:32 35.428716 -119.045456 60 481ft 0kts
13-Feb-21 12:33 35.428716 -119.045456 60 481ft 0kts
13-Feb-21 12:34 35.428717 -119.045456 59 481ft 0kts
13-Feb-21 12:35 35.428717 -119.045457 59 481ft 0kts
13-Feb-21 12:36 35.427710 -119.045219 133 478ft 8kts
13-Feb-21 12:37 35.425677 -119.043398 86 472ft 0kts
13-Feb-21 12:38 35.424805 -119.042920 114 470ft 8kts
13-Feb-21 12:39 35.424619 -119.043023 351 470ft 5kts
13-Feb-21 12:40 35.426804 -119.044430 223 474ft 9kts
13-Feb-21 12:41 35.425716 -119.044792 226 472ft 0kts
13-Feb-21 12:42 35.425716 -119.044792 226 472ft 0kts
13-Feb-21 12:43 35.426189 -119.047012 316 479ft 32kts
13-Feb-21 12:44 35.440069 -119.063875 311 986ft 76kts
13-Feb-21 12:45 35.459536 -119.067951 43 1504ft 101kts
13-Feb-21 12:46 35.447156 -119.038508 132 2002ft 108kts
13-Feb-21 12:47 35.426792 -119.010985 139 2497ft 108kts
13-Feb-21 12:48 35.404769 -118.986225 125 2993ft 108kts
13-Feb-21 12:49 35.391178 -118.953479 117 3496ft 107kts
13-Feb-21 12:50 35.377715 -118.920839 117 3999ft 107kts
13-Feb-21 12:51 35.364336 -118.888197 117 4504ft 107kts
13-Feb-21 12:52 35.351050 -118.855740 117 5003ft 106kts
13-Feb-21 12:53 35.337838 -118.823484 117 5502ft 105kts
13-Feb-21 12:54 35.324764 -118.791612 117 6000ft 104kts
13-Feb-21 12:55 35.311923 -118.760358 117 6497ft 101kts
13-Feb-21 12:56 35.299350 -118.729764 117 7002ft 99kts
13-Feb-21 12:57 35.287005 -118.699750 117 7439ft 102kts
13-Feb-21 12:58 35.272656 -118.664911 117 7496ft 123kts
13-Feb-21 12:59 35.256974 -118.626869 117 7499ft 126kts
13-Feb-21 13:00 35.241127 -118.588475 117 7500ft 126kts
13-Feb-21 13:01 35.225237 -118.550029 117 7502ft 127kts
13-Feb-21 13:02 35.209197 -118.511247 117 7500ft 128kts
13-Feb-21 13:03 35.193117 -118.472438 117 7498ft 128kts
13-Feb-21 13:04 35.176995 -118.433557 117 7498ft 127kts
13-Feb-21 13:05 35.161013 -118.395090 117 7498ft 126kts
13-Feb-21 13:06 35.144010 -118.354155 117 7055ft 140kts
13-Feb-21 13:07 35.126253 -118.311505 117 6622ft 138kts
13-Feb-21 13:08 35.110816 -118.274433 117 6296ft 102kts
13-Feb-21 13:09 35.097282 -118.242006 117 5557ft 118kts
13-Feb-21 13:11 35.082592 -118.207412 112 4517ft 105kts
13-Feb-21 13:12 35.083548 -118.174695 78 3871ft 93kts
13-Feb-21 13:13 35.085877 -118.145843 132 3628ft 84kts
13-Feb-21 13:14 35.069718 -118.129281 162 3494ft 73kts
13-Feb-21 13:15 35.059211 -118.147143 269 2758ft 59kts
13-Feb-21 13:16 35.058444 -118.149744 136 2753ft 0kts
13-Feb-21 13:17 35.058444 -118.149744 136 2753ft 0kts
13-Feb-21 13:18 35.058180 -118.149552 161 2752ft 9kts
13-Feb-21 13:19 35.057610 -118.151994 266 2756ft 2kts
13-Feb-21 13:20 35.057138 -118.153386 267 2759ft 2kts
13-Feb-21 13:21 35.057138 -118.153389 267 2759ft 0kts
13-Feb-21 13:22 35.057138 -118.153389 267 2759ft 0kts
13-Feb-21 13:23 35.057138 -118.153389 267 2759ft 0kts
13-Feb-21 13:24 35.057138 -118.153389 267 2759ft 0kts
13-Feb-21 13:24 35.057138 -118.153389 267 2759ft 0kts
13-Feb-21 13:25 35.057138 -118.153389 267 2759ft 0kts
13-Feb-21 13:27 35.057138 -118.153389 267 2759ft 0kts
13-Feb-21 13:28 35.057138 -118.153389 267 2759ft 0kts
13-Feb-21 13:28 35.057138 -118.153389 267 2759ft 0kts
13-Feb-21 13:30 35.057138 -118.153389 267 2759ft 0kts

Navigation Log

Ident Type
Flight plan parsing failed, navigation log unavailable